• Join FlightAware (Why Join?)
  • Login
  • US Flag 
11:24AM EDT


 

Airport Tracker/Info


-or-


 

Live Flight TrackerFlight Track Log ✈ N682RW ✈ 01-Nov-2013 ✈ CYYC - CYEG

Flight Track Log - Related Links

Times and Time Zones

All times are in EDT time to prevent confusion due to time zone crossing. See the N682RW flight status page for this flight to view local times or setup timezone preferences in your user account.

Time Position Orientation Groundspeed Altitude Reporting Facility
EDT Latitude Longitude Course Direction KTS MPH feet Rate Location/Type
01:23AM 51.0667 -114.0333 353° North 160 184 4,500  Level Edmonton Center
01:24AM 51.0167 -114.0500 192° South 220 253 6,400 1,980 Climbing Edmonton Center
01:25AM 50.9500 -114.0667 189° South 260 299 8,500 2,640 Climbing Edmonton Center
01:26AM 50.9167 -114.1667 242° Southwest 260 299 11,700 3,000 Climbing Edmonton Center
01:27AM 51.0000 -114.1833 353° North 290 334 14,600 2,340 Climbing Edmonton Center
01:28AM 51.0833 -114.1667 North 350 403 16,400 2,160 Climbing Edmonton Center
01:29AM 51.6210 -113.9224 353° North  Level Estimated
01:29AM 51.2000 -114.1667 360° North 370 426 19,000  Level Edmonton Center
01:30AM 51.3167 -114.1833 355° North 380 437 20,000 480 Climbing Edmonton Center
01:31AM 51.4167 -114.1500 12° North 390 449 20,000  Level Edmonton Center
01:32AM 51.5167 -114.1500 360° North 390 449 20,000  Level Edmonton Center
01:33AM 51.6167 -114.1167 12° North 380 437 20,000  Level Edmonton Center
01:34AM 51.7333 -114.0833 10° North 380 437 20,000  Level Edmonton Center
01:35AM 51.8500 -114.0667 North 380 437 20,000  Level Edmonton Center
01:36AM 51.9333 -114.0500 North 380 437 20,000  Level Edmonton Center
01:37AM 52.0500 -114.0167 10° North 380 437 20,000  Level Edmonton Center
01:38AM 52.1667 -113.9833 10° North 380 437 20,000 -600 Level Edmonton Center
01:39AM 52.2667 -113.9833 360° North 380 437 18,800 -1,380 Descending Edmonton Center
01:40AM 52.3667 -113.9500 12° North 370 426 17,300 -1,620 Descending Edmonton Center
01:41AM 52.4667 -113.9167 11° North 360 414 15,600 -1,800 Descending Edmonton Center
01:42AM 52.5500 -113.9000 North 360 414 13,700 -1,860 Descending Edmonton Center
01:43AM 52.6667 -113.8667 10° North 350 403 11,900 -1,680 Descending Edmonton Center
01:44AM 52.7500 -113.8667 360° North 310 357 10,400 -1,380 Descending Edmonton Center
01:45AM 52.8167 -113.8500 North 280 322 9,200 -1,500 Descending Edmonton Center
01:46AM 52.9000 -113.8333 North 280 322 7,500 -1,440 Descending Edmonton Center
01:47AM 52.9667 -113.8000 17° North 260 299 6,400 -900 Descending Edmonton Center
01:48AM 53.0500 -113.7833 North 210 242 5,700 -660 Descending Edmonton Center
01:49AM 53.1000 -113.8000 349° North 190 219 5,100 -360 Descending Edmonton Center
01:50AM 53.1500 -113.7833 11° North 170 196 5,000 -180 Descending Edmonton Center
01:51AM 53.1833 -113.7333 42° Northeast 160 184 4,800 -600 Descending Edmonton Center
01:52AM 53.2167 -113.7167 17° North 150 173 3,900 -840 Descending Edmonton Center
01:53AM 53.2500 -113.6667 42° Northeast 130 150 3,200 -720 Descending Edmonton Center
01:54AM 53.2833 -113.6333 31° Northeast 140 161 2,500 -720 Descending Edmonton Center